createdAt,value
2018-03-17T00:01:18.209Z,98761.93
2018-03-17T00:03:46.656Z,98756.83
2018-03-17T00:06:14.248Z,98760.08
2018-03-17T00:08:41.813Z,98761.09
2018-03-17T00:11:09.403Z,98758.81
2018-03-17T00:13:37.008Z,98759.92
2018-03-17T00:16:04.564Z,98761.92
2018-03-17T00:18:32.117Z,98765.44
2018-03-17T00:20:59.712Z,98758.39
2018-03-17T00:23:27.268Z,98760.06
2018-03-17T00:25:54.851Z,98762.73
2018-03-17T00:28:22.395Z,98771.18
2018-03-17T00:30:49.987Z,98769.05
2018-03-17T00:33:17.583Z,98763.03
2018-03-17T00:35:45.133Z,98746.96
2018-03-17T00:38:12.719Z,98735.95
2018-03-17T00:40:40.316Z,98741.31
2018-03-17T00:43:07.912Z,98736.93
2018-03-17T00:45:35.889Z,98734.91
2018-03-17T00:48:03.439Z,98726.14
2018-03-17T00:50:31.060Z,98720.95
2018-03-17T00:52:58.607Z,98715.13
2018-03-17T00:55:26.200Z,98714.67
2018-03-17T00:57:53.852Z,98711.29
2018-03-17T01:00:21.451Z,98695.38
2018-03-17T01:02:49.058Z,98701.56
2018-03-17T01:05:16.617Z,98704.00
2018-03-17T01:07:44.203Z,98696.00
2018-03-17T01:10:12.394Z,98692.99
2018-03-17T01:12:39.975Z,98703.66
2018-03-17T01:15:07.741Z,98710.67
2018-03-17T01:17:35.506Z,98708.32
2018-03-17T01:20:03.056Z,98705.66
2018-03-17T01:22:31.588Z,98704.55
2018-03-17T01:24:59.135Z,98703.17
2018-03-17T01:27:27.253Z,98695.66
2018-03-17T01:29:55.419Z,98702.47
2018-03-17T01:32:22.967Z,98706.75
2018-03-17T01:34:50.514Z,98711.60
2018-03-17T01:37:18.365Z,98706.78
2018-03-17T01:39:45.919Z,98706.72
2018-03-17T01:42:13.472Z,98695.19
2018-03-17T01:44:41.069Z,98694.47
2018-03-17T01:47:08.660Z,98708.20
2018-03-17T01:49:36.207Z,98701.73
2018-03-17T01:52:04.334Z,98693.73
2018-03-17T01:54:31.974Z,98694.05
2018-03-17T01:56:59.599Z,98696.16
2018-03-17T01:59:27.171Z,98697.99
2018-03-17T02:01:54.762Z,98696.93
2018-03-17T02:04:22.321Z,98689.81
2018-03-17T02:06:50.020Z,98701.73
2018-03-17T02:09:17.603Z,98709.62
2018-03-17T02:11:46.183Z,98705.44
2018-03-17T02:14:14.149Z,98707.78
2018-03-17T02:16:41.744Z,98706.28
2018-03-17T02:19:09.345Z,98710.79
2018-03-17T02:21:36.922Z,98701.55
2018-03-17T02:24:04.482Z,98705.69
2018-03-17T02:26:32.396Z,98707.58
2018-03-17T02:28:59.991Z,98710.46
2018-03-17T02:31:27.544Z,98718.23
2018-03-17T02:33:55.112Z,98712.82
2018-03-17T02:36:22.698Z,98711.16
2018-03-17T02:38:50.246Z,98713.86
2018-03-17T02:41:17.835Z,98707.31
2018-03-17T02:43:45.392Z,98709.95
2018-03-17T02:46:13.250Z,98699.23
2018-03-17T02:48:40.805Z,98701.56
2018-03-17T02:51:08.390Z,98701.45
2018-03-17T02:53:35.946Z,98701.18
2018-03-17T02:56:03.535Z,98692.83
2018-03-17T02:58:31.128Z,98697.52
2018-03-17T03:00:58.675Z,98706.30
2018-03-17T03:03:26.232Z,98698.57
2018-03-17T03:05:53.828Z,98703.61
2018-03-17T03:08:21.423Z,98699.55
2018-03-17T03:10:48.975Z,98697.75
2018-03-17T03:13:16.562Z,98699.40
2018-03-17T03:15:44.120Z,98711.24
2018-03-17T03:18:11.675Z,98714.83
2018-03-17T03:20:39.288Z,98706.39
2018-03-17T03:23:06.881Z,98721.56
2018-03-17T03:25:34.431Z,98722.52
2018-03-17T03:28:02.149Z,98713.55
2018-03-17T03:30:30.457Z,98708.83
2018-03-17T03:32:58.004Z,98709.34
2018-03-17T03:35:25.560Z,98719.17
2018-03-17T03:37:53.160Z,98720.44
2018-03-17T03:40:20.764Z,98720.67
2018-03-17T03:42:48.708Z,98717.33
2018-03-17T03:45:16.586Z,98712.70
2018-03-17T03:47:44.154Z,98719.95
2018-03-17T03:50:12.030Z,98721.12
2018-03-17T03:52:39.570Z,98716.28
2018-03-17T03:55:07.155Z,98718.06
2018-03-17T03:57:34.765Z,98708.11
2018-03-17T04:00:02.324Z,98715.40
2018-03-17T04:02:29.947Z,98716.39
2018-03-17T04:04:57.488Z,98728.44
2018-03-17T04:07:25.061Z,98726.19
2018-03-17T04:09:52.617Z,98720.66
2018-03-17T04:12:20.201Z,98712.17
2018-03-17T04:14:47.739Z,98726.29
2018-03-17T04:17:15.331Z,98728.61
2018-03-17T04:19:42.885Z,98718.36
2018-03-17T04:22:10.757Z,98715.23
2018-03-17T04:24:38.897Z,98710.27
2018-03-17T04:27:06.486Z,98710.16
2018-03-17T04:29:34.065Z,98706.73
2018-03-17T04:32:02.091Z,98702.41
2018-03-17T04:34:29.627Z,98701.62
2018-03-17T04:36:57.217Z,98696.23
2018-03-17T04:39:25.265Z,98694.05
2018-03-17T04:41:52.847Z,98696.62
2018-03-17T04:44:20.437Z,98696.99
2018-03-17T04:46:48.077Z,98697.27
2018-03-17T04:49:15.870Z,98686.42
2018-03-17T04:51:43.461Z,98693.53
2018-03-17T04:54:11.056Z,98687.52
2018-03-17T04:56:38.595Z,98684.19
2018-03-17T04:59:06.183Z,98689.43
2018-03-17T05:01:33.741Z,98685.74
2018-03-17T05:04:01.356Z,98688.33
2018-03-17T05:06:29.410Z,98690.47
2018-03-17T05:08:56.972Z,98694.14
2018-03-17T05:11:25.310Z,98691.83
2018-03-17T05:13:52.892Z,98701.83
2018-03-17T05:16:20.501Z,98698.61
2018-03-17T05:18:48.109Z,98694.73
2018-03-17T05:21:15.656Z,98709.55
2018-03-17T05:23:43.217Z,98703.03
2018-03-17T05:26:10.813Z,98704.36
2018-03-17T05:28:38.377Z,98706.33
2018-03-17T05:31:05.980Z,98702.35
2018-03-17T05:33:33.832Z,98706.58
2018-03-17T05:36:01.947Z,98701.88
2018-03-17T05:38:29.561Z,98695.31
2018-03-17T05:40:57.173Z,98700.90
2018-03-17T05:43:24.748Z,98691.61
2018-03-17T05:45:52.364Z,98691.32
2018-03-17T05:48:19.955Z,98693.55
2018-03-17T05:50:47.509Z,98701.60
2018-03-17T05:53:15.111Z,98706.95
2018-03-17T05:55:42.947Z,98711.36
2018-03-17T05:58:10.533Z,98711.48
2018-03-17T06:00:38.659Z,98713.59
2018-03-17T06:03:06.224Z,98696.37
2018-03-17T06:05:33.784Z,98701.59
2018-03-17T06:08:01.376Z,98695.92
2018-03-17T06:10:28.918Z,98682.35
2018-03-17T06:12:56.521Z,98673.30
2018-03-17T06:15:24.119Z,98692.88
2018-03-17T06:17:51.662Z,98687.28
2018-03-17T06:20:19.387Z,98687.53
2018-03-17T06:22:46.987Z,98672.20
2018-03-17T06:25:15.096Z,98672.73
2018-03-17T06:27:42.695Z,98676.06
2018-03-17T06:30:12.244Z,98677.22
2018-03-17T06:32:39.840Z,98691.13
2018-03-17T06:35:07.405Z,98692.30
2018-03-17T06:37:35.001Z,98683.88
2018-03-17T06:40:02.552Z,98667.75
2018-03-17T06:42:30.169Z,98665.09
2018-03-17T06:44:58.171Z,98664.59
2018-03-17T06:47:26.500Z,98679.19
2018-03-17T06:49:54.084Z,98682.49
2018-03-17T06:52:23.315Z,98670.81
2018-03-17T06:54:50.926Z,98653.42
2018-03-17T06:57:18.608Z,98674.84
2018-03-17T06:59:47.269Z,98685.16
2018-03-17T07:02:14.864Z,98710.02
2018-03-17T07:04:43.632Z,98718.41
2018-03-17T07:07:11.227Z,98713.46
2018-03-17T07:09:40.123Z,98713.09
2018-03-17T07:12:08.672Z,98699.28
2018-03-17T07:14:36.274Z,98687.33
2018-03-17T07:17:03.889Z,98678.78
2018-03-17T07:19:31.441Z,98691.67
2018-03-17T07:21:59.028Z,98698.46
2018-03-17T07:24:27.488Z,98695.16
2018-03-17T07:26:55.437Z,98687.20
2018-03-17T07:29:22.984Z,98680.30
2018-03-17T07:31:50.535Z,98690.63
2018-03-17T07:34:18.644Z,98683.25
2018-03-17T07:36:46.202Z,98681.20
2018-03-17T07:39:13.820Z,98680.08
2018-03-17T07:41:41.736Z,98672.13
2018-03-17T07:44:09.805Z,98669.40
2018-03-17T07:46:37.357Z,98673.05
2018-03-17T07:49:05.516Z,98659.37
2018-03-17T07:51:33.101Z,98677.36
2018-03-17T07:54:00.691Z,98670.56
2018-03-17T07:56:28.240Z,98672.58
2018-03-17T07:58:55.836Z,98662.07
2018-03-17T08:01:23.397Z,98669.06
2018-03-17T08:03:51.809Z,98657.95
2018-03-17T08:06:19.647Z,98664.05
2018-03-17T08:08:47.197Z,98658.19
2018-03-17T08:11:14.904Z,98672.02
2018-03-17T08:13:42.978Z,98656.06
2018-03-17T08:16:10.577Z,98652.91
2018-03-17T08:18:39.067Z,98651.61
2018-03-17T08:21:06.628Z,98649.36
2018-03-17T08:23:34.222Z,98634.17
2018-03-17T08:26:01.786Z,98643.19
2018-03-17T08:28:29.387Z,98642.38
2018-03-17T08:30:56.949Z,98641.77
2018-03-17T08:33:24.499Z,98630.92
2018-03-17T08:35:53.287Z,98615.16
2018-03-17T08:38:21.076Z,98613.41
2018-03-17T08:40:48.800Z,98614.72
2018-03-17T08:43:17.536Z,98609.72
2018-03-17T08:45:45.097Z,98600.31
2018-03-17T08:48:13.286Z,98603.58
2018-03-17T08:50:40.841Z,98614.25
2018-03-17T08:53:09.467Z,98618.50
2018-03-17T08:55:37.000Z,98632.32
2018-03-17T08:58:04.592Z,98633.52
2018-03-17T09:00:32.200Z,98659.50
2018-03-17T09:02:59.801Z,98664.50
2018-03-17T09:05:30.010Z,98669.94
2018-03-17T09:07:57.561Z,98659.26
2018-03-17T09:10:25.990Z,98650.14
2018-03-17T09:12:53.973Z,98633.35
2018-03-17T09:15:23.220Z,98611.47
2018-03-17T09:17:51.184Z,98610.05
2018-03-17T09:20:19.249Z,98609.13
2018-03-17T09:22:46.844Z,98589.41
2018-03-17T09:25:14.450Z,98581.31
2018-03-17T09:27:42.373Z,98573.97
2018-03-17T09:30:09.954Z,98577.45
2018-03-17T09:32:37.499Z,98548.06
2018-03-17T09:35:05.091Z,98566.23
2018-03-17T09:37:32.639Z,98567.87
2018-03-17T09:40:00.249Z,98569.94
2018-03-17T09:42:27.799Z,98557.65
2018-03-17T09:44:55.757Z,98576.30
2018-03-17T09:47:23.364Z,98575.70
2018-03-17T09:49:50.921Z,98566.45
2018-03-17T09:52:18.585Z,98559.11
2018-03-17T09:54:46.158Z,98552.20
2018-03-17T09:57:13.748Z,98541.91
2018-03-17T09:59:41.313Z,98540.88
2018-03-17T10:02:08.904Z,98536.23
2018-03-17T10:04:37.004Z,98529.15
2018-03-17T10:07:05.413Z,98521.28
2018-03-17T10:09:32.977Z,98513.11
2018-03-17T10:12:00.572Z,98496.91
2018-03-17T10:14:28.623Z,98481.74
2018-03-17T10:16:56.212Z,98449.98
2018-03-17T10:19:23.817Z,98424.81
2018-03-17T10:21:51.363Z,98443.78
2018-03-17T10:24:18.956Z,98452.77
2018-03-17T10:26:47.413Z,98431.77
2018-03-17T10:29:14.973Z,98435.75
2018-03-17T10:31:43.391Z,98420.43
2018-03-17T10:34:10.970Z,98425.52
2018-03-17T10:36:38.568Z,98414.84
2018-03-17T10:39:07.456Z,98406.34
2018-03-17T10:41:36.012Z,98405.42
2018-03-17T10:44:03.593Z,98402.20
2018-03-17T10:46:31.186Z,98391.08
2018-03-17T10:48:58.746Z,98383.13
2018-03-17T10:51:26.357Z,98381.22
2018-03-17T10:53:53.900Z,98357.38
2018-03-17T10:56:21.533Z,98337.39
2018-03-17T10:58:49.152Z,98339.52
2018-03-17T11:01:20.515Z,98325.16
2018-03-17T11:03:48.811Z,98319.68
2018-03-17T11:06:16.459Z,98303.83
2018-03-17T11:08:44.390Z,98286.48
2018-03-17T11:11:12.815Z,98277.23
2018-03-17T11:13:40.372Z,98284.57
2018-03-17T11:16:07.971Z,98279.64
2018-03-17T11:18:35.533Z,98276.06
2018-03-17T11:21:03.124Z,98258.72
2018-03-17T11:23:31.705Z,98262.68
2018-03-17T11:26:00.139Z,98254.99
2018-03-17T11:28:27.691Z,98234.27
2018-03-17T11:30:55.260Z,98231.07
2018-03-17T11:33:22.865Z,98224.70
2018-03-17T11:35:50.451Z,98216.63
2018-03-17T11:38:18.022Z,98216.01
2018-03-17T11:40:45.688Z,98220.53
2018-03-17T11:43:13.229Z,98209.58
2018-03-17T11:45:40.788Z,98207.59
2018-03-17T11:48:08.524Z,98209.57
2018-03-17T11:50:36.084Z,98205.54
2018-03-17T11:53:03.671Z,98231.83
2018-03-17T11:55:31.289Z,98254.13
2018-03-17T11:57:58.837Z,98248.84
2018-03-17T12:00:26.424Z,98232.87
2018-03-17T12:02:55.346Z,98222.41
2018-03-17T12:05:23.782Z,98209.86
2018-03-17T12:07:51.374Z,98188.98
2018-03-17T12:10:19.037Z,98205.69
2018-03-17T12:12:46.877Z,98220.39
2018-03-17T12:15:14.428Z,98222.03
2018-03-17T12:17:42.915Z,98204.12
2018-03-17T12:20:10.500Z,98190.77
2018-03-17T12:22:38.060Z,98198.70
2018-03-17T12:25:06.502Z,98190.42
2018-03-17T12:27:34.109Z,98193.89
2018-03-17T12:30:01.730Z,98191.98
2018-03-17T12:32:29.320Z,98174.06
2018-03-17T12:34:56.885Z,98175.73
2018-03-17T12:37:24.491Z,98149.86
2018-03-17T12:39:52.144Z,98161.02
2018-03-17T12:42:19.704Z,98157.55
2018-03-17T12:44:47.256Z,98168.28
2018-03-17T12:47:14.853Z,98161.19
2018-03-17T12:49:42.413Z,98149.30
2018-03-17T12:52:10.017Z,98145.16
2018-03-17T12:54:37.560Z,98142.63
2018-03-17T12:57:05.471Z,98129.20
2018-03-17T12:59:33.019Z,98125.84
2018-03-17T13:02:00.614Z,98119.78
2018-03-17T13:04:29.011Z,98125.84
2018-03-17T13:06:56.603Z,98122.18
2018-03-17T13:09:25.123Z,98107.83
2018-03-17T13:11:53.207Z,98083.28
2018-03-17T13:14:21.513Z,98092.03
2018-03-17T13:16:49.113Z,98083.15
2018-03-17T13:19:28.684Z,98091.56
2018-03-17T13:21:57.129Z,98090.47
2018-03-17T13:24:25.166Z,98082.21
2018-03-17T13:27:04.630Z,98081.72
2018-03-17T13:29:32.480Z,98075.30
2018-03-17T13:32:00.033Z,98072.47
2018-03-17T13:34:28.437Z,98073.47
2018-03-17T13:37:07.774Z,98069.85
2018-03-17T13:39:35.380Z,98059.23
2018-03-17T13:42:03.823Z,98055.36
2018-03-17T13:44:31.409Z,98055.52
2018-03-17T13:46:59.935Z,98033.88
2018-03-17T13:49:28.176Z,98047.17
2018-03-17T13:51:56.512Z,98055.03
2018-03-17T13:54:24.099Z,98024.22
2018-03-17T13:56:51.684Z,97992.49
2018-03-17T13:59:19.293Z,97979.05
2018-03-17T14:01:47.864Z,97984.75
2018-03-17T14:04:17.081Z,97998.80
2018-03-17T14:06:44.656Z,97989.92
2018-03-17T14:09:12.251Z,97980.67
2018-03-17T14:11:39.853Z,97985.12
2018-03-17T14:14:07.402Z,97986.78
2018-03-17T14:16:35.201Z,97999.59
2018-03-17T14:19:05.820Z,97988.11
2018-03-17T14:21:33.411Z,97956.08
2018-03-17T14:24:00.963Z,97939.88
2018-03-17T14:26:28.544Z,97975.56
2018-03-17T14:28:56.082Z,97977.72
2018-03-17T14:31:23.692Z,97941.13
2018-03-17T14:33:51.564Z,97953.44
2018-03-17T14:36:19.122Z,97941.43
2018-03-17T14:38:46.720Z,97915.90
2018-03-17T14:41:14.273Z,97907.97
2018-03-17T14:43:41.868Z,97915.59
2018-03-17T14:46:10.340Z,97914.61
2018-03-17T14:48:37.927Z,97921.15
2018-03-17T14:51:07.421Z,97931.94
2018-03-17T14:53:35.015Z,97941.88
2018-03-17T14:56:02.625Z,97937.38
2018-03-17T14:58:30.169Z,97920.47
2018-03-17T15:00:57.712Z,97934.59
2018-03-17T15:03:25.308Z,97924.16
2018-03-17T15:05:54.036Z,97928.66
2018-03-17T15:08:21.640Z,97933.68
2018-03-17T15:10:50.089Z,97913.36
2018-03-17T15:13:17.716Z,97904.19
2018-03-17T15:15:45.312Z,97899.31
2018-03-17T15:18:13.009Z,97910.91
2018-03-17T15:20:43.131Z,97922.88
2018-03-17T15:23:10.740Z,97906.60
2018-03-17T15:25:38.357Z,97904.03
2018-03-17T15:28:05.920Z,97886.48
2018-03-17T15:30:33.503Z,97887.53
2018-03-17T15:33:01.157Z,97891.19
2018-03-17T15:35:29.273Z,97882.44
2018-03-17T15:37:56.864Z,97876.50
2018-03-17T15:40:24.447Z,97874.42
2018-03-17T15:42:53.113Z,97877.59
2018-03-17T15:45:20.712Z,97866.83
2018-03-17T15:47:48.314Z,97856.30
2018-03-17T15:50:15.921Z,97859.20
2018-03-17T15:52:43.481Z,97866.94
2018-03-17T15:55:11.080Z,97837.23
2018-03-17T15:57:38.644Z,97846.48
2018-03-17T16:00:06.247Z,97829.56
2018-03-17T16:02:34.347Z,97847.64
2018-03-17T16:05:01.940Z,97839.08
2018-03-17T16:07:29.506Z,97830.84
2018-03-17T16:09:57.131Z,97834.61
2018-03-17T16:12:24.697Z,97830.42
2018-03-17T16:14:52.244Z,97818.19
2018-03-17T16:17:19.841Z,97816.50
2018-03-17T16:19:48.015Z,97811.48
2018-03-17T16:22:15.609Z,97802.05
2018-03-17T16:24:43.178Z,97806.61
2018-03-17T16:27:11.669Z,97793.89
2018-03-17T16:29:39.213Z,97791.20
2018-03-17T16:32:07.188Z,97786.69
2018-03-17T16:34:34.754Z,97792.46
2018-03-17T16:37:02.352Z,97800.20
2018-03-17T16:39:29.921Z,97789.55
2018-03-17T16:41:58.311Z,97785.97
2018-03-17T16:44:26.469Z,97786.95
2018-03-17T16:46:54.069Z,97779.67
2018-03-17T16:49:22.592Z,97778.42
2018-03-17T16:51:50.159Z,97781.41
2018-03-17T16:54:17.740Z,97778.58
2018-03-17T16:56:45.352Z,97791.11
2018-03-17T16:59:12.952Z,97784.03
2018-03-17T17:01:40.537Z,97779.98
2018-03-17T17:04:08.667Z,97786.16
2018-03-17T17:06:36.634Z,97802.30
2018-03-17T17:09:04.900Z,97802.41
2018-03-17T17:11:32.457Z,97801.56
2018-03-17T17:14:00.030Z,97834.31
2018-03-17T17:16:27.624Z,97859.60
2018-03-17T17:18:55.177Z,97855.41
2018-03-17T17:21:22.781Z,97863.66
2018-03-17T17:23:50.814Z,97846.80
2018-03-17T17:26:18.442Z,97854.75
2018-03-17T17:28:46.321Z,97873.07
2018-03-17T17:31:14.664Z,97875.73
2018-03-17T17:33:42.270Z,97872.24
2018-03-17T17:36:10.222Z,97877.25
2018-03-17T17:38:38.526Z,97894.62
2018-03-17T17:41:06.972Z,97890.39
2018-03-17T17:43:34.568Z,97871.37
2018-03-17T17:46:02.206Z,97879.48
2018-03-17T17:48:29.800Z,97897.41
2018-03-17T17:50:57.356Z,97889.91
2018-03-17T17:53:24.907Z,97905.44
2018-03-17T17:55:52.510Z,97932.05
2018-03-17T17:58:20.591Z,97931.64
2018-03-17T18:00:48.498Z,97941.27
2018-03-17T18:03:17.181Z,97933.76
2018-03-17T18:05:45.874Z,97928.94
2018-03-17T18:08:14.259Z,97930.38
2018-03-17T18:10:42.057Z,97935.01
2018-03-17T18:13:11.500Z,97944.59
2018-03-17T18:15:40.252Z,97963.00
2018-03-17T18:18:09.084Z,97957.00
2018-03-17T18:20:38.560Z,97947.89
2018-03-17T18:23:07.698Z,97957.49
2018-03-17T18:25:35.797Z,97968.55
2018-03-17T18:28:04.800Z,97972.83
2018-03-17T18:30:33.714Z,97974.44
2018-03-17T18:33:02.069Z,97974.80
2018-03-17T18:35:30.332Z,97985.51
2018-03-17T18:37:58.525Z,97989.84
2018-03-17T18:40:27.185Z,97995.13
2018-03-17T18:42:55.959Z,97979.48
2018-03-17T18:45:24.105Z,97992.92
2018-03-17T18:47:52.686Z,98002.19
2018-03-17T18:50:20.649Z,97970.06
2018-03-17T18:52:49.405Z,97998.39
2018-03-17T18:55:17.578Z,98004.33
2018-03-17T18:57:45.460Z,98004.94
2018-03-17T19:00:13.052Z,98005.46
2018-03-17T19:02:41.840Z,98013.77
2018-03-17T19:05:09.463Z,97995.22
2018-03-17T19:07:37.775Z,97993.92
2018-03-17T19:10:05.603Z,97982.94
2018-03-17T19:12:33.927Z,97987.09
2018-03-17T19:15:02.035Z,97990.91
2018-03-17T19:17:29.627Z,98005.28
2018-03-17T19:19:57.535Z,98007.66
2018-03-17T19:22:25.419Z,97975.98
2018-03-17T19:24:53.051Z,97990.31
2018-03-17T19:27:21.420Z,97967.52
2018-03-17T19:29:49.149Z,97988.30
2018-03-17T19:32:17.149Z,97962.41
2018-03-17T19:34:44.829Z,97962.38
2018-03-17T19:37:15.727Z,97954.52
2018-03-17T19:39:43.312Z,97994.72
2018-03-17T19:42:10.873Z,97964.91
2018-03-17T19:44:39.763Z,97954.18
2018-03-17T19:47:08.155Z,97968.98
2018-03-17T19:49:35.983Z,97952.80
2018-03-17T19:52:03.965Z,97951.70
2018-03-17T19:54:32.458Z,97961.48
2018-03-17T19:57:00.510Z,97963.05
2018-03-17T19:59:29.475Z,97998.58
2018-03-17T20:01:57.661Z,97957.06
2018-03-17T20:04:25.462Z,97922.54
2018-03-17T20:06:53.021Z,97932.81
2018-03-17T20:09:20.778Z,97935.70
2018-03-17T20:11:48.885Z,97936.16
2018-03-17T20:14:16.451Z,97920.63
2018-03-17T20:16:44.532Z,97910.47
2018-03-17T20:19:12.649Z,97918.80
2018-03-17T20:21:40.233Z,97910.34
2018-03-17T20:24:07.842Z,97914.72
2018-03-17T20:26:36.009Z,97920.53
2018-03-17T20:29:04.784Z,97930.83
2018-03-17T20:31:32.849Z,97935.89
2018-03-17T20:34:00.445Z,97922.45
2018-03-17T20:36:28.507Z,97967.93
2018-03-17T20:38:56.126Z,97948.62
2018-03-17T20:41:24.989Z,97936.84
2018-03-17T20:43:53.760Z,97931.30
2018-03-17T20:46:21.306Z,97937.26
2018-03-17T20:48:49.604Z,97943.41
2018-03-17T20:51:17.214Z,97938.55
2018-03-17T20:53:44.768Z,97913.22
2018-03-17T20:56:12.332Z,97939.73
2018-03-17T20:58:39.944Z,97934.44
2018-03-17T21:01:08.733Z,97928.91
2018-03-17T21:03:36.332Z,97940.30
2018-03-17T21:06:03.875Z,97924.34
2018-03-17T21:08:32.438Z,97927.03
2018-03-17T21:11:00.630Z,97935.27
2018-03-17T21:13:29.595Z,97900.31
2018-03-17T21:15:57.185Z,97918.97
2018-03-17T21:18:24.764Z,97948.60
2018-03-17T21:20:52.625Z,97941.92
2018-03-17T21:23:20.169Z,97921.99
2018-03-17T21:25:48.052Z,97927.16
2018-03-17T21:28:16.139Z,97944.98
2018-03-17T21:30:43.731Z,97931.61
2018-03-17T21:33:11.276Z,97906.59
2018-03-17T21:35:39.577Z,97930.89
2018-03-17T21:38:07.116Z,97926.34
2018-03-17T21:40:34.654Z,97919.10
2018-03-17T21:43:02.244Z,97915.30
2018-03-17T21:45:29.804Z,97916.02
2018-03-17T21:47:57.396Z,97921.13
2018-03-17T21:50:25.005Z,97900.34
2018-03-17T21:52:52.547Z,97925.64
2018-03-17T21:55:20.135Z,97918.08
2018-03-17T21:57:47.695Z,97913.94
2018-03-17T22:00:15.795Z,97909.30
2018-03-17T22:02:48.255Z,97895.39
2018-03-17T22:05:15.854Z,97899.70
2018-03-17T22:07:43.449Z,97890.06
2018-03-17T22:10:11.383Z,97890.44
2018-03-17T22:12:39.816Z,97887.38
2018-03-17T22:15:07.915Z,97886.28
2018-03-17T22:17:35.474Z,97894.30
2018-03-17T22:20:03.072Z,97883.90
2018-03-17T22:22:30.667Z,97899.13
2018-03-17T22:24:58.214Z,97880.05
2018-03-17T22:27:25.765Z,97898.02
2018-03-17T22:29:53.359Z,97905.71
2018-03-17T22:32:20.910Z,97884.86
2018-03-17T22:34:48.455Z,97911.42
2018-03-17T22:37:16.044Z,97925.28
2018-03-17T22:39:43.593Z,97901.34
2018-03-17T22:42:11.195Z,97896.90
2018-03-17T22:44:38.752Z,97900.42
2018-03-17T22:47:07.152Z,97892.34
2018-03-17T22:49:34.761Z,97909.42
2018-03-17T22:52:03.284Z,97895.16
2018-03-17T22:54:30.873Z,97874.56
2018-03-17T22:56:58.426Z,97887.83
2018-03-17T22:59:26.021Z,97896.91
2018-03-17T23:01:55.833Z,97873.80
2018-03-17T23:04:23.514Z,97890.66
2018-03-17T23:06:51.055Z,97904.80
2018-03-17T23:09:18.657Z,97878.20
2018-03-17T23:11:47.219Z,97897.01
2018-03-17T23:14:14.759Z,97874.04
2018-03-17T23:16:42.374Z,97851.81
2018-03-17T23:19:09.924Z,97856.45
2018-03-17T23:21:37.524Z,97853.50
2018-03-17T23:24:05.979Z,97852.59
2018-03-17T23:26:33.577Z,97863.38
2018-03-17T23:29:01.160Z,97849.71
2018-03-17T23:31:30.723Z,97845.23
2018-03-17T23:33:58.788Z,97852.77
2018-03-17T23:36:27.329Z,97837.17
2018-03-17T23:38:55.126Z,97859.48
2018-03-17T23:41:22.707Z,97869.72
2018-03-17T23:43:50.302Z,97878.96
2018-03-17T23:46:17.868Z,97835.59
2018-03-17T23:48:45.484Z,97847.80
2018-03-17T23:51:13.147Z,97798.87
2018-03-17T23:53:40.750Z,97860.81
2018-03-17T23:56:08.559Z,97824.72
2018-03-17T23:58:36.131Z,97807.52
